sensor_id;sensor_type;location;lat;lon;timestamp;pressure;altitude;pressure_sealevel;temperature;humidity
58622;BME280;44389;51.578;5.456;2023-04-12T00:01:27;100454.97;;;7.32;100.00
58622;BME280;44389;51.578;5.456;2023-04-12T00:03:52;100437.78;;;7.30;100.00
58622;BME280;44389;51.578;5.456;2023-04-12T00:06:18;100429.97;;;7.27;100.00
58622;BME280;44389;51.578;5.456;2023-04-12T00:08:49;100426.47;;;7.24;100.00
58622;BME280;44389;51.578;5.456;2023-04-12T00:11:15;100418.66;;;7.21;100.00
58622;BME280;44389;51.578;5.456;2023-04-12T00:13:40;100403.19;;;7.18;100.00
58622;BME280;44389;51.578;5.456;2023-04-12T00:16:07;100403.06;;;7.15;100.00
58622;BME280;44389;51.578;5.456;2023-04-12T00:18:33;100395.38;;;7.15;100.00
58622;BME280;44389;51.578;5.456;2023-04-12T00:20:58;100401.34;;;7.14;100.00
58622;BME280;44389;51.578;5.456;2023-04-12T00:23:23;100392.66;;;7.11;100.00
58622;BME280;44389;51.578;5.456;2023-04-12T00:25:49;100382.28;;;7.07;100.00
58622;BME280;44389;51.578;5.456;2023-04-12T00:28:14;100371.97;;;7.06;100.00
58622;BME280;44389;51.578;5.456;2023-04-12T00:30:40;100364.28;;;7.06;100.00
58622;BME280;44389;51.578;5.456;2023-04-12T00:33:06;100348.00;;;7.04;100.00
58622;BME280;44389;51.578;5.456;2023-04-12T00:35:31;100353.09;;;7.02;100.00
58622;BME280;44389;51.578;5.456;2023-04-12T00:37:56;100336.81;;;7.02;100.00
58622;BME280;44389;51.578;5.456;2023-04-12T00:40:22;100330.78;;;7.00;100.00
58622;BME280;44389;51.578;5.456;2023-04-12T00:42:47;100322.22;;;6.99;100.00
58622;BME280;44389;51.578;5.456;2023-04-12T00:45:13;100319.69;;;7.01;100.00
58622;BME280;44389;51.578;5.456;2023-04-12T00:47:39;100314.53;;;6.99;100.00
58622;BME280;44389;51.578;5.456;2023-04-12T00:50:07;100316.22;;;6.99;100.00
58622;BME280;44389;51.578;5.456;2023-04-12T00:52:33;100304.22;;;6.98;100.00
58622;BME280;44389;51.578;5.456;2023-04-12T00:55:03;100303.28;;;6.96;100.00
58622;BME280;44389;51.578;5.456;2023-04-12T00:57:39;100298.16;;;6.96;100.00
58622;BME280;44389;51.578;5.456;2023-04-12T01:00:05;100283.63;;;6.95;100.00
58622;BME280;44389;51.578;5.456;2023-04-12T01:02:33;100274.16;;;6.92;100.00
58622;BME280;44389;51.578;5.456;2023-04-12T01:04:59;100272.41;;;6.91;100.00
58622;BME280;44389;51.578;5.456;2023-04-12T01:07:45;100253.72;;;6.94;100.00
58622;BME280;44389;51.578;5.456;2023-04-12T01:11:12;100251.91;;;6.91;100.00
58622;BME280;44389;51.578;5.456;2023-04-12T01:15:50;100230.44;;;6.87;100.00
58622;BME280;44389;51.578;5.456;2023-04-12T01:18:20;100227.00;;;6.87;100.00
58622;BME280;44389;51.578;5.456;2023-04-12T01:20:54;100214.97;;;6.84;100.00
58622;BME280;44389;51.578;5.456;2023-04-12T01:26:16;100203.78;;;6.82;100.00
58622;BME280;44389;51.578;5.456;2023-04-12T01:28:52;100192.69;;;6.82;100.00
58622;BME280;44389;51.578;5.456;2023-04-12T01:31:19;100182.38;;;6.80;100.00
58622;BME280;44389;51.578;5.456;2023-04-12T01:33:46;100172.06;;;6.79;100.00
58622;BME280;44389;51.578;5.456;2023-04-12T01:36:16;100177.25;;;6.80;100.00
58622;BME280;44389;51.578;5.456;2023-04-12T01:38:42;100163.53;;;6.78;100.00
58622;BME280;44389;51.578;5.456;2023-04-12T01:41:08;100154.97;;;6.78;100.00
58622;BME280;44389;51.578;5.456;2023-04-12T01:43:39;100141.34;;;6.79;100.00
58622;BME280;44389;51.578;5.456;2023-04-12T01:46:05;100144.66;;;6.76;100.00
58622;BME280;44389;51.578;5.456;2023-04-12T01:48:30;100129.41;;;6.79;100.00
58622;BME280;44389;51.578;5.456;2023-04-12T01:51:04;100135.31;;;6.77;100.00
58622;BME280;44389;51.578;5.456;2023-04-12T01:53:50;100124.19;;;6.76;100.00
58622;BME280;44389;51.578;5.456;2023-04-12T01:56:18;100120.81;;;6.77;100.00
58622;BME280;44389;51.578;5.456;2023-04-12T01:58:46;100126.78;;;6.78;100.00
58622;BME280;44389;51.578;5.456;2023-04-12T02:01:14;100114.06;;;6.79;100.00
58622;BME280;44389;51.578;5.456;2023-04-12T02:03:40;100094.34;;;6.77;100.00
58622;BME280;44389;51.578;5.456;2023-04-12T02:06:07;100084.00;;;6.75;100.00
58622;BME280;44389;51.578;5.456;2023-04-12T02:08:34;100073.78;;;6.75;100.00
58622;BME280;44389;51.578;5.456;2023-04-12T02:11:00;100069.50;;;6.74;100.00
58622;BME280;44389;51.578;5.456;2023-04-12T02:13:25;100069.50;;;6.74;100.00
58622;BME280;44389;51.578;5.456;2023-04-12T02:15:51;100068.72;;;6.77;100.00
58622;BME280;44389;51.578;5.456;2023-04-12T02:18:18;100050.97;;;6.83;100.00
58622;BME280;44389;51.578;5.456;2023-04-12T02:20:43;100044.78;;;6.76;100.00
58622;BME280;44389;51.578;5.456;2023-04-12T02:23:09;100036.28;;;6.77;100.00
58622;BME280;44389;51.578;5.456;2023-04-12T02:25:34;100025.19;;;6.77;100.00
58622;BME280;44389;51.578;5.456;2023-04-12T02:28:00;100025.22;;;6.78;100.00
58622;BME280;44389;51.578;5.456;2023-04-12T02:30:25;100026.09;;;6.79;100.00
58622;BME280;44389;51.578;5.456;2023-04-12T02:32:50;100019.28;;;6.79;100.00
58622;BME280;44389;51.578;5.456;2023-04-12T02:35:17;100004.69;;;6.77;100.00
58622;BME280;44389;51.578;5.456;2023-04-12T02:37:43;100003.00;;;6.77;100.00
58622;BME280;44389;51.578;5.456;2023-04-12T02:40:11;99992.75;;;6.77;100.00
58622;BME280;44389;51.578;5.456;2023-04-12T02:42:38;99982.47;;;6.75;100.00
58622;BME280;44389;51.578;5.456;2023-04-12T02:45:03;99979.91;;;6.75;100.00
58622;BME280;44389;51.578;5.456;2023-04-12T02:47:29;99973.97;;;6.77;100.00
58622;BME280;44389;51.578;5.456;2023-04-12T02:49:55;99965.41;;;6.76;100.00
58622;BME280;44389;51.578;5.456;2023-04-12T02:52:20;99955.97;;;6.75;100.00
58622;BME280;44389;51.578;5.456;2023-04-12T02:54:48;99948.28;;;6.75;100.00
58622;BME280;44389;51.578;5.456;2023-04-12T02:57:13;99945.81;;;6.77;100.00
58622;BME280;44389;51.578;5.456;2023-04-12T02:59:40;99935.56;;;6.77;100.00
58622;BME280;44389;51.578;5.456;2023-04-12T03:02:05;99920.19;;;6.77;100.00
58622;BME280;44389;51.578;5.456;2023-04-12T03:04:31;99918.44;;;6.75;100.00
58622;BME280;44389;51.578;5.456;2023-04-12T03:06:56;99917.56;;;6.75;100.00
58622;BME280;44389;51.578;5.456;2023-04-12T03:09:22;99913.31;;;6.75;100.00
58622;BME280;44389;51.578;5.456;2023-04-12T03:11:47;99907.31;;;6.75;100.00
58622;BME280;44389;51.578;5.456;2023-04-12T03:14:13;99898.72;;;6.73;100.00
58622;BME280;44389;51.578;5.456;2023-04-12T03:16:38;99892.69;;;6.71;100.00
58622;BME280;44389;51.578;5.456;2023-04-12T03:19:04;99876.44;;;6.69;100.00
58622;BME280;44389;51.578;5.456;2023-04-12T03:21:30;99882.38;;;6.68;100.00
58622;BME280;44389;51.578;5.456;2023-04-12T03:24:00;99892.56;;;6.66;100.00
58622;BME280;44389;51.578;5.456;2023-04-12T03:26:26;99878.03;;;6.65;100.00
58622;BME280;44389;51.578;5.456;2023-04-12T03:28:59;99871.94;;;6.62;100.00
58622;BME280;44389;51.578;5.456;2023-04-12T03:31:25;99860.06;;;6.64;100.00
58622;BME280;44389;51.578;5.456;2023-04-12T03:33:51;99858.41;;;6.66;100.00
58622;BME280;44389;51.578;5.456;2023-04-12T03:36:16;99862.63;;;6.64;100.00
58622;BME280;44389;51.578;5.456;2023-04-12T03:38:42;99860.06;;;6.64;100.00
58622;BME280;44389;51.578;5.456;2023-04-12T03:41:07;99854.00;;;6.62;100.00
58622;BME280;44389;51.578;5.456;2023-04-12T03:43:32;99864.25;;;6.62;100.00
58622;BME280;44389;51.578;5.456;2023-04-12T03:46:01;99843.72;;;6.60;100.00
58622;BME280;44389;51.578;5.456;2023-04-12T03:48:27;99851.41;;;6.60;100.00
58622;BME280;44389;51.578;5.456;2023-04-12T03:50:52;99844.56;;;6.59;100.00
58622;BME280;44389;51.578;5.456;2023-04-12T03:53:19;99836.84;;;6.57;100.00
58622;BME280;44389;51.578;5.456;2023-04-12T03:55:45;99828.34;;;6.58;100.00
58622;BME280;44389;51.578;5.456;2023-04-12T03:58:10;99817.19;;;6.58;100.00
58622;BME280;44389;51.578;5.456;2023-04-12T04:00:37;99808.66;;;6.57;100.00
58622;BME280;44389;51.578;5.456;2023-04-12T04:03:03;99809.53;;;6.58;100.00
58622;BME280;44389;51.578;5.456;2023-04-12T04:05:30;99810.44;;;6.60;100.00
58622;BME280;44389;51.578;5.456;2023-04-12T04:07:56;99801.94;;;6.61;100.00
58622;BME280;44389;51.578;5.456;2023-04-12T04:10:26;99795.09;;;6.60;100.00
58622;BME280;44389;51.578;5.456;2023-04-12T04:12:51;99791.72;;;6.61;100.00
58622;BME280;44389;51.578;5.456;2023-04-12T04:15:17;99793.38;;;6.61;100.00
58622;BME280;44389;51.578;5.456;2023-04-12T04:17:42;99786.53;;;6.59;100.00
58622;BME280;44389;51.578;5.456;2023-04-12T04:20:09;99772.88;;;6.59;100.00
58622;BME280;44389;51.578;5.456;2023-04-12T04:22:36;99774.69;;;6.63;100.00
58622;BME280;44389;51.578;5.456;2023-04-12T04:25:02;99771.91;;;6.55;100.00
58622;BME280;44389;51.578;5.456;2023-04-12T04:27:28;99761.66;;;6.55;100.00
58622;BME280;44389;51.578;5.456;2023-04-12T04:29:54;99759.06;;;6.54;100.00
58622;BME280;44389;51.578;5.456;2023-04-12T04:32:23;99760.81;;;6.55;100.00
58622;BME280;44389;51.578;5.456;2023-04-12T04:34:49;99754.81;;;6.54;100.00
58622;BME280;44389;51.578;5.456;2023-04-12T04:37:15;99749.69;;;6.54;100.00
58622;BME280;44389;51.578;5.456;2023-04-12T04:39:43;99751.44;;;6.55;100.00
58622;BME280;44389;51.578;5.456;2023-04-12T04:42:08;99742.88;;;6.55;100.00
58622;BME280;44389;51.578;5.456;2023-04-12T04:44:33;99739.56;;;6.57;100.00
58622;BME280;44389;51.578;5.456;2023-04-12T04:46:59;99735.25;;;6.56;100.00
58622;BME280;44389;51.578;5.456;2023-04-12T04:49:25;99743.78;;;6.57;100.00
58622;BME280;44389;51.578;5.456;2023-04-12T04:51:50;99737.00;;;6.57;100.00
58622;BME280;44389;51.578;5.456;2023-04-12T04:54:15;99739.56;;;6.57;100.00
58622;BME280;44389;51.578;5.456;2023-04-12T04:56:41;99745.53;;;6.58;100.00
58622;BME280;44389;51.578;5.456;2023-04-12T04:59:06;99736.16;;;6.58;100.00
58622;BME280;44389;51.578;5.456;2023-04-12T05:01:31;99722.53;;;6.59;100.00
58622;BME280;44389;51.578;5.456;2023-04-12T05:04:01;99732.81;;;6.61;100.00
58622;BME280;44389;51.578;5.456;2023-04-12T05:06:26;99726.84;;;6.62;100.00
58622;BME280;44389;51.578;5.456;2023-04-12T05:08:52;99722.63;;;6.63;100.00
58622;BME280;44389;51.578;5.456;2023-04-12T05:11:18;99727.75;;;6.63;100.00
58622;BME280;44389;51.578;5.456;2023-04-12T05:13:43;99726.06;;;6.65;100.00
58622;BME280;44389;51.578;5.456;2023-04-12T05:16:09;99729.56;;;6.67;100.00
58622;BME280;44389;51.578;5.456;2023-04-12T05:18:35;99726.13;;;6.66;100.00
58622;BME280;44389;51.578;5.456;2023-04-12T05:21:02;99719.31;;;6.67;100.00
58622;BME280;44389;51.578;5.456;2023-04-12T05:23:28;99719.34;;;6.68;100.00
58622;BME280;44389;51.578;5.456;2023-04-12T05:25:53;99710.88;;;6.71;100.00
58622;BME280;44389;51.578;5.456;2023-04-12T05:28:18;99710.03;;;6.70;100.00
58622;BME280;44389;51.578;5.456;2023-04-12T05:30:44;99711.81;;;6.73;100.00
58622;BME280;44389;51.578;5.456;2023-04-12T05:33:09;99714.41;;;6.74;100.00
58622;BME280;44389;51.578;5.456;2023-04-12T05:35:35;99711.84;;;6.74;100.00
58622;BME280;44389;51.578;5.456;2023-04-12T05:38:00;99705.88;;;6.74;100.00
58622;BME280;44389;51.578;5.456;2023-04-12T05:40:26;99696.53;;;6.78;100.00
58622;BME280;44389;51.578;5.456;2023-04-12T05:42:51;99698.28;;;6.79;100.00
58622;BME280;44389;51.578;5.456;2023-04-12T05:45:16;99694.03;;;6.79;100.00
58622;BME280;44389;51.578;5.456;2023-04-12T05:47:42;99697.47;;;6.80;100.00
58622;BME280;44389;51.578;5.456;2023-04-12T05:50:07;99698.44;;;6.85;100.00
58622;BME280;44389;51.578;5.456;2023-04-12T05:52:32;99707.13;;;6.90;100.00
58622;BME280;44389;51.578;5.456;2023-04-12T05:54:58;99704.59;;;6.91;100.00
58622;BME280;44389;51.578;5.456;2023-04-12T05:57:23;99704.59;;;6.91;100.00
58622;BME280;44389;51.578;5.456;2023-04-12T05:59:49;99694.38;;;6.93;100.00
58622;BME280;44389;51.578;5.456;2023-04-12T06:02:14;99701.28;;;6.96;100.00
58622;BME280;44389;51.578;5.456;2023-04-12T06:04:40;99692.78;;;6.97;100.00
58622;BME280;44389;51.578;5.456;2023-04-12T06:07:06;99685.19;;;7.00;100.00
58622;BME280;44389;51.578;5.456;2023-04-12T06:09:31;99698.00;;;7.00;100.00
58622;BME280;44389;51.578;5.456;2023-04-12T06:11:56;99697.13;;;7.01;100.00
58622;BME280;44389;51.578;5.456;2023-04-12T06:14:22;99690.38;;;7.03;100.00
58622;BME280;44389;51.578;5.456;2023-04-12T06:16:47;99690.41;;;7.04;100.00
58622;BME280;44389;51.578;5.456;2023-04-12T06:19:13;99682.72;;;7.04;100.00
58622;BME280;44389;51.578;5.456;2023-04-12T06:21:38;99693.88;;;7.06;100.00
58622;BME280;44389;51.578;5.456;2023-04-12T06:24:03;99689.63;;;7.07;100.00
58622;BME280;44389;51.578;5.456;2023-04-12T06:26:29;99693.09;;;7.09;100.00
58622;BME280;44389;51.578;5.456;2023-04-12T06:28:54;99690.53;;;7.09;100.00
58622;BME280;44389;51.578;5.456;2023-04-12T06:31:20;99677.72;;;7.09;100.00
58622;BME280;44389;51.578;5.456;2023-04-12T06:33:45;99692.31;;;7.12;100.00
58622;BME280;44389;51.578;5.456;2023-04-12T06:36:11;99685.50;;;7.14;100.00
58622;BME280;44389;51.578;5.456;2023-04-12T06:38:36;99687.25;;;7.15;100.00
58622;BME280;44389;51.578;5.456;2023-04-12T06:41:02;99688.16;;;7.17;100.00
58622;BME280;44389;51.578;5.456;2023-04-12T06:43:27;99679.59;;;7.16;100.00
58622;BME280;44389;51.578;5.456;2023-04-12T06:45:53;99684.72;;;7.16;100.00
58622;BME280;44389;51.578;5.456;2023-04-12T06:48:18;99678.75;;;7.17;100.00
58622;BME280;44389;51.578;5.456;2023-04-12T06:50:44;99693.31;;;7.18;100.00
58622;BME280;44389;51.578;5.456;2023-04-12T06:53:09;99691.56;;;7.17;100.00
58622;BME280;44389;51.578;5.456;2023-04-12T06:55:34;99695.06;;;7.19;100.00
58622;BME280;44389;51.578;5.456;2023-04-12T06:58:00;99688.19;;;7.18;100.00
58622;BME280;44389;51.578;5.456;2023-04-12T07:00:25;99686.50;;;7.20;100.00
58622;BME280;44389;51.578;5.456;2023-04-12T07:02:51;99692.56;;;7.22;100.00
58622;BME280;44389;51.578;5.456;2023-04-12T07:05:16;99693.53;;;7.28;100.00
58622;BME280;44389;51.578;5.456;2023-04-12T07:07:41;99691.88;;;7.30;100.00
58622;BME280;44389;51.578;5.456;2023-04-12T07:10:07;99697.22;;;7.39;100.00
58622;BME280;44389;51.578;5.456;2023-04-12T07:12:32;99685.31;;;7.41;100.00
58622;BME280;44389;51.578;5.456;2023-04-12T07:14:58;99696.44;;;7.41;100.00
58622;BME280;44389;51.578;5.456;2023-04-12T07:17:23;99699.94;;;7.45;100.00
58622;BME280;44389;51.578;5.456;2023-04-12T07:19:53;99698.25;;;7.46;100.00
58622;BME280;44389;51.578;5.456;2023-04-12T07:22:19;99696.50;;;7.45;100.00
58622;BME280;44389;51.578;5.456;2023-04-12T07:24:44;99688.84;;;7.46;100.00
58622;BME280;44389;51.578;5.456;2023-04-12T07:27:10;99692.47;;;7.54;100.00
58622;BME280;44389;51.578;5.456;2023-04-12T07:29:35;99691.63;;;7.55;100.00
58622;BME280;44389;51.578;5.456;2023-04-12T07:32:02;99689.94;;;7.56;100.00
58622;BME280;44389;51.578;5.456;2023-04-12T07:34:27;99690.88;;;7.60;100.00
58622;BME280;44389;51.578;5.456;2023-04-12T07:36:53;99695.25;;;7.65;100.00
58622;BME280;44389;51.578;5.456;2023-04-12T07:39:18;99687.72;;;7.71;100.00
58622;BME280;44389;51.578;5.456;2023-04-12T07:41:43;99687.84;;;7.76;100.00
58622;BME280;44389;51.578;5.456;2023-04-12T07:44:11;99676.94;;;7.86;100.00
58622;BME280;44389;51.578;5.456;2023-04-12T07:46:37;99681.22;;;7.87;100.00
58622;BME280;44389;51.578;5.456;2023-04-12T07:49:03;99684.75;;;7.93;100.00
58622;BME280;44389;51.578;5.456;2023-04-12T07:51:28;99677.03;;;7.93;100.00
58622;BME280;44389;51.578;5.456;2023-04-12T07:53:53;99676.19;;;7.92;100.00
58622;BME280;44389;51.578;5.456;2023-04-12T07:56:18;99671.13;;;7.95;100.00
58622;BME280;44389;51.578;5.456;2023-04-12T07:58:44;99666.94;;;8.00;100.00
58622;BME280;44389;51.578;5.456;2023-04-12T08:01:10;99676.34;;;8.00;100.00
58622;BME280;44389;51.578;5.456;2023-04-12T08:03:36;99667.84;;;8.01;100.00
58622;BME280;44389;51.578;5.456;2023-04-12T08:06:01;99678.88;;;7.97;100.00
58622;BME280;44389;51.578;5.456;2023-04-12T08:08:27;99683.03;;;7.91;100.00
58622;BME280;44389;51.578;5.456;2023-04-12T08:10:52;99672.72;;;7.90;100.00
58622;BME280;44389;51.578;5.456;2023-04-12T08:13:18;99679.56;;;7.89;100.00
58622;BME280;44389;51.578;5.456;2023-04-12T08:15:43;99698.44;;;7.91;100.00
58622;BME280;44389;51.578;5.456;2023-04-12T08:18:11;99696.59;;;7.87;100.00
58622;BME280;44389;51.578;5.456;2023-04-12T08:20:36;99693.97;;;7.83;100.00
58622;BME280;44389;51.578;5.456;2023-04-12T08:23:04;99705.28;;;7.93;100.00
58622;BME280;44389;51.578;5.456;2023-04-12T08:25:29;99700.69;;;7.78;100.00
58622;BME280;44389;51.578;5.456;2023-04-12T08:27:55;99693.88;;;7.80;100.00
58622;BME280;44389;51.578;5.456;2023-04-12T08:30:21;99692.28;;;7.85;100.00
58622;BME280;44389;51.578;5.456;2023-04-12T08:32:50;99690.56;;;7.84;100.00
58622;BME280;44389;51.578;5.456;2023-04-12T08:35:16;99684.56;;;7.83;100.00
58622;BME280;44389;51.578;5.456;2023-04-12T08:37:41;99693.16;;;7.85;100.00
58622;BME280;44389;51.578;5.456;2023-04-12T08:40:07;99698.44;;;7.91;100.00
58622;BME280;44389;51.578;5.456;2023-04-12T08:42:33;99699.41;;;7.98;100.00
58622;BME280;44389;51.578;5.456;2023-04-12T08:45:05;99683.53;;;8.15;100.00
58622;BME280;44389;51.578;5.456;2023-04-12T08:47:35;99678.72;;;8.32;100.00
58622;BME280;44389;51.578;5.456;2023-04-12T08:50:02;99684.19;;;8.47;100.00
58622;BME280;44389;51.578;5.456;2023-04-12T08:52:32;99682.78;;;8.65;100.00
58622;BME280;44389;51.578;5.456;2023-04-12T08:55:01;99678.94;;;8.88;100.00
58622;BME280;44389;51.578;5.456;2023-04-12T08:57:27;99679.34;;;9.12;100.00
58622;BME280;44389;51.578;5.456;2023-04-12T08:59:53;99689.09;;;9.31;100.00
58622;BME280;44389;51.578;5.456;2023-04-12T09:02:18;99682.22;;;9.30;100.00
58622;BME280;44389;51.578;5.456;2023-04-12T09:04:48;99685.84;;;9.43;100.00
58622;BME280;44389;51.578;5.456;2023-04-12T09:07:14;99680.94;;;9.59;100.00
58622;BME280;44389;51.578;5.456;2023-04-12T09:09:41;99678.50;;;9.69;100.00
58622;BME280;44389;51.578;5.456;2023-04-12T09:12:07;99669.28;;;9.84;100.00
58622;BME280;44389;51.578;5.456;2023-04-12T09:14:33;99675.47;;;9.98;100.00
58622;BME280;44389;51.578;5.456;2023-04-12T09:16:58;99667.94;;;10.14;100.00
58622;BME280;44389;51.578;5.456;2023-04-12T09:19:34;99670.53;;;10.15;100.00
58622;BME280;44389;51.578;5.456;2023-04-12T09:22:01;99662.91;;;10.21;100.00
58622;BME280;44389;51.578;5.456;2023-04-12T09:24:27;99667.22;;;10.26;100.00
58622;BME280;44389;51.578;5.456;2023-04-12T09:27:03;99668.38;;;10.49;100.00
58622;BME280;44389;51.578;5.456;2023-04-12T09:29:30;99666.38;;;11.10;100.00
58622;BME280;44389;51.578;5.456;2023-04-12T09:32:03;99669.25;;;11.48;100.00
58622;BME280;44389;51.578;5.456;2023-04-12T09:34:31;99665.78;;;11.43;100.00
58622;BME280;44389;51.578;5.456;2023-04-12T09:36:56;99657.88;;;11.23;100.00
58622;BME280;44389;51.578;5.456;2023-04-12T09:39:32;99662.84;;;10.98;100.00
58622;BME280;44389;51.578;5.456;2023-04-12T09:42:11;99669.50;;;10.75;100.00
58622;BME280;44389;51.578;5.456;2023-04-12T09:44:37;99668.63;;;10.74;100.00
58622;BME280;44389;51.578;5.456;2023-04-12T09:47:03;99655.66;;;10.66;100.00
58622;BME280;44389;51.578;5.456;2023-04-12T09:49:36;99659.34;;;10.93;100.00
58622;BME280;44389;51.578;5.456;2023-04-12T09:52:04;99651.75;;;11.07;99.76
58622;BME280;44389;51.578;5.456;2023-04-12T09:54:36;99654.38;;;11.15;97.59
58622;BME280;44389;51.578;5.456;2023-04-12T09:57:03;99643.94;;;10.98;96.78
58622;BME280;44389;51.578;5.456;2023-04-12T09:59:35;99643.03;;;10.93;98.05
58622;BME280;44389;51.578;5.456;2023-04-12T10:02:03;99644.72;;;10.87;98.56
58622;BME280;44389;51.578;5.456;2023-04-12T10:04:31;99646.31;;;10.76;94.18
58622;BME280;44389;51.578;5.456;2023-04-12T10:06:59;99651.31;;;10.58;93.24
58622;BME280;44389;51.578;5.456;2023-04-12T10:09:25;99644.31;;;10.47;96.10
58622;BME280;44389;51.578;5.456;2023-04-12T10:11:51;99637.38;;;10.40;96.71
58622;BME280;44389;51.578;5.456;2023-04-12T10:14:18;99635.63;;;10.39;97.50
58622;BME280;44389;51.578;5.456;2023-04-12T10:16:45;99651.00;;;10.33;99.75
58622;BME280;44389;51.578;5.456;2023-04-12T10:19:12;99656.84;;;10.19;100.00
58622;BME280;44389;51.578;5.456;2023-04-12T10:21:38;99652.88;;;10.43;99.78
58622;BME280;44389;51.578;5.456;2023-04-12T10:24:04;99651.56;;;10.85;99.40
58622;BME280;44389;51.578;5.456;2023-04-12T10:26:31;99643.22;;;11.17;95.85
58622;BME280;44389;51.578;5.456;2023-04-12T10:29:24;99642.72;;;11.69;93.67
58622;BME280;44389;51.578;5.456;2023-04-12T10:31:54;99650.66;;;12.02;89.35
58622;BME280;44389;51.578;5.456;2023-04-12T10:34:28;99642.94;;;12.07;89.22
58622;BME280;44389;51.578;5.456;2023-04-12T10:36:55;99645.53;;;12.14;83.80
58622;BME280;44389;51.578;5.456;2023-04-12T10:39:35;99656.75;;;12.15;85.35
58622;BME280;44389;51.578;5.456;2023-04-12T10:42:25;99648.94;;;12.04;84.37
58622;BME280;44389;51.578;5.456;2023-04-12T10:44:56;99656.53;;;11.81;84.03
58622;BME280;44389;51.578;5.456;2023-04-12T10:50:22;99656.50;;;11.68;83.78
58622;BME280;44389;51.578;5.456;2023-04-12T10:55:34;99667.03;;;10.85;71.96
58622;BME280;44389;51.578;5.456;2023-04-12T10:57:59;99667.63;;;10.60;75.96
58622;BME280;44389;51.578;5.456;2023-04-12T11:03:23;99663.97;;;10.37;78.67
58622;BME280;44389;51.578;5.456;2023-04-12T11:06:15;99671.66;;;10.36;82.02
58622;BME280;44389;51.578;5.456;2023-04-12T11:08:42;99670.53;;;10.15;85.15
58622;BME280;44389;51.578;5.456;2023-04-12T11:11:18;99657.56;;;10.06;87.35
58622;BME280;44389;51.578;5.456;2023-04-12T11:13:45;99668.63;;;10.00;88.10
58622;BME280;44389;51.578;5.456;2023-04-12T11:16:10;99670.16;;;9.87;87.99
58622;BME280;44389;51.578;5.456;2023-04-12T11:18:38;99672.53;;;9.72;88.84
58622;BME280;44389;51.578;5.456;2023-04-12T11:21:04;99678.59;;;9.76;91.52
58622;BME280;44389;51.578;5.456;2023-04-12T11:23:31;99676.72;;;9.64;92.21
58622;BME280;44389;51.578;5.456;2023-04-12T11:25:56;99667.16;;;9.55;91.95
58622;BME280;44389;51.578;5.456;2023-04-12T11:28:22;99673.13;;;9.54;94.64
58622;BME280;44389;51.578;5.456;2023-04-12T11:30:54;99678.38;;;9.60;96.41
58622;BME280;44389;51.578;5.456;2023-04-12T11:33:30;99675.88;;;9.65;98.44
58622;BME280;44389;51.578;5.456;2023-04-12T11:35:56;99670.66;;;9.62;98.87
58622;BME280;44389;51.578;5.456;2023-04-12T11:38:21;99668.09;;;9.62;100.00
58622;BME280;44389;51.578;5.456;2023-04-12T11:40:47;99665.75;;;9.77;100.00
58622;BME280;44389;51.578;5.456;2023-04-12T11:43:18;99654.16;;;10.07;99.91
58622;BME280;44389;51.578;5.456;2023-04-12T11:45:44;99653.53;;;10.30;93.63
58622;BME280;44389;51.578;5.456;2023-04-12T11:48:09;99654.81;;;10.69;90.50
58622;BME280;44389;51.578;5.456;2023-04-12T11:50:35;99660.63;;;11.45;89.53
58622;BME280;44389;51.578;5.456;2023-04-12T11:53:11;99670.50;;;12.12;85.80
58622;BME280;44389;51.578;5.456;2023-04-12T11:55:37;99657.78;;;13.17;80.61
58622;BME280;44389;51.578;5.456;2023-04-12T11:58:02;99662.75;;;14.23;73.89
58622;BME280;44389;51.578;5.456;2023-04-12T12:00:28;99661.03;;;14.19;64.93
58622;BME280;44389;51.578;5.456;2023-04-12T12:02:55;99662.72;;;14.32;61.57
58622;BME280;44389;51.578;5.456;2023-04-12T12:05:20;99662.66;;;14.44;64.65
58622;BME280;44389;51.578;5.456;2023-04-12T12:07:46;99662.03;;;13.83;57.24
58622;BME280;44389;51.578;5.456;2023-04-12T12:10:11;99675.88;;;13.21;61.74
58622;BME280;44389;51.578;5.456;2023-04-12T12:12:37;99681.84;;;12.51;56.64
58622;BME280;44389;51.578;5.456;2023-04-12T12:15:02;99677.22;;;11.85;59.63
58622;BME280;44389;51.578;5.456;2023-04-12T12:17:28;99694.88;;;11.24;58.37
58622;BME280;44389;51.578;5.456;2023-04-12T12:19:55;99696.06;;;10.69;60.19
58622;BME280;44389;51.578;5.456;2023-04-12T12:22:21;99698.03;;;10.18;62.83
58622;BME280;44389;51.578;5.456;2023-04-12T12:27:55;99718.06;;;9.22;71.34
58622;BME280;44389;51.578;5.456;2023-04-12T12:30:15;99719.13;;;8.85;71.54
58622;BME280;44389;51.578;5.456;2023-04-12T12:32:41;99728.28;;;8.70;77.30
58622;BME280;44389;51.578;5.456;2023-04-12T12:35:11;99739.06;;;8.52;78.78
58622;BME280;44389;51.578;5.456;2023-04-12T12:37:37;99730.13;;;8.35;82.53
58622;BME280;44389;51.578;5.456;2023-04-12T12:40:12;99738.31;;;8.18;87.70
58622;BME280;44389;51.578;5.456;2023-04-12T12:42:48;99728.50;;;7.99;92.31
58622;BME280;44389;51.578;5.456;2023-04-12T12:45:16;99712.59;;;8.15;95.06
58622;BME280;44389;51.578;5.456;2023-04-12T12:47:56;99699.09;;;9.14;99.92
58622;BME280;44389;51.578;5.456;2023-04-12T12:50:24;99697.59;;;10.50;97.91
58622;BME280;44389;51.578;5.456;2023-04-12T12:52:51;99701.78;;;11.28;88.48
58622;BME280;44389;51.578;5.456;2023-04-12T12:55:17;99694.00;;;13.24;86.51
58622;BME280;44389;51.578;5.456;2023-04-12T12:57:44;99691.44;;;13.25;77.46
58622;BME280;44389;51.578;5.456;2023-04-12T13:00:11;99692.25;;;12.82;75.48
58622;BME280;44389;51.578;5.456;2023-04-12T13:02:39;99692.25;;;12.82;73.38
58622;BME280;44389;51.578;5.456;2023-04-12T13:05:05;99688.78;;;12.90;69.15
58622;BME280;44389;51.578;5.456;2023-04-12T13:07:31;99697.38;;;12.67;73.06
58622;BME280;44389;51.578;5.456;2023-04-12T13:09:57;99694.72;;;12.38;75.41
58622;BME280;44389;51.578;5.456;2023-04-12T13:12:22;99698.84;;;12.03;74.48
58622;BME280;44389;51.578;5.456;2023-04-12T13:14:47;99694.28;;;11.62;77.79